sensor_id;sensor_type;location;lat;lon;timestamp;P1;durP1;ratioP1;P2;durP2;ratioP2
56746;SDS011;42623;49.978;9.966;2023-03-01T00:04:32;12.63;;;6.63;;
56746;SDS011;42623;49.978;9.966;2023-03-01T00:04:43;19.17;;;10.60;;
56746;SDS011;42623;49.978;9.966;2023-03-01T00:04:53;18.50;;;10.63;;
56746;SDS011;42623;49.978;9.966;2023-03-01T00:05:03;22.23;;;15.37;;
56746;SDS011;42623;49.978;9.966;2023-03-01T00:05:13;23.95;;;19.60;;
56746;SDS011;42623;49.978;9.966;2023-03-01T00:05:23;30.03;;;26.93;;
56746;SDS011;42623;49.978;9.966;2023-03-01T00:05:33;30.63;;;27.57;;
56746;SDS011;42623;49.978;9.966;2023-03-01T00:05:44;29.97;;;26.97;;
56746;SDS011;42623;49.978;9.966;2023-03-01T00:05:55;27.77;;;22.70;;
56746;SDS011;42623;49.978;9.966;2023-03-01T00:06:05;25.77;;;20.97;;
56746;SDS011;42623;49.978;9.966;2023-03-01T00:06:15;23.60;;;19.20;;
56746;SDS011;42623;49.978;9.966;2023-03-01T00:06:26;20.65;;;17.25;;
56746;SDS011;42623;49.978;9.966;2023-03-01T00:06:36;22.23;;;15.87;;
56746;SDS011;42623;49.978;9.966;2023-03-01T00:06:47;22.67;;;14.75;;
56746;SDS011;42623;49.978;9.966;2023-03-01T00:06:57;24.27;;;15.43;;
56746;SDS011;42623;49.978;9.966;2023-03-01T00:07:07;20.93;;;14.73;;
56746;SDS011;42623;49.978;9.966;2023-03-01T00:07:17;20.60;;;15.33;;
56746;SDS011;42623;49.978;9.966;2023-03-01T00:07:27;18.95;;;15.10;;
56746;SDS011;42623;49.978;9.966;2023-03-01T00:07:37;20.33;;;15.07;;
56746;SDS011;42623;49.978;9.966;2023-03-01T00:07:48;19.07;;;13.73;;
56746;SDS011;42623;49.978;9.966;2023-03-01T00:07:58;17.50;;;12.53;;
56746;SDS011;42623;49.978;9.966;2023-03-01T00:08:08;17.23;;;13.87;;
56746;SDS011;42623;49.978;9.966;2023-03-01T00:08:18;16.53;;;14.57;;
56746;SDS011;42623;49.978;9.966;2023-03-01T00:08:28;16.63;;;14.73;;
56746;SDS011;42623;49.978;9.966;2023-03-01T00:08:40;17.25;;;13.98;;
56746;SDS011;42623;49.978;9.966;2023-03-01T00:08:50;18.00;;;12.87;;
56746;SDS011;42623;49.978;9.966;2023-03-01T00:09:00;18.70;;;12.77;;
56746;SDS011;42623;49.978;9.966;2023-03-01T00:09:10;18.97;;;11.90;;
56746;SDS011;42623;49.978;9.966;2023-03-01T00:09:21;18.37;;;10.53;;
56746;SDS011;42623;49.978;9.966;2023-03-01T00:09:31;19.90;;;10.97;;
56746;SDS011;42623;49.978;9.966;2023-03-01T00:09:41;20.33;;;11.40;;
56746;SDS011;42623;49.978;9.966;2023-03-01T00:09:51;20.47;;;12.43;;
56746;SDS011;42623;49.978;9.966;2023-03-01T00:10:01;18.33;;;11.77;;
56746;SDS011;42623;49.978;9.966;2023-03-01T00:10:11;15.07;;;10.57;;
56746;SDS011;42623;49.978;9.966;2023-03-01T00:10:21;14.33;;;10.03;;
56746;SDS011;42623;49.978;9.966;2023-03-01T00:10:31;13.27;;;9.70;;
56746;SDS011;42623;49.978;9.966;2023-03-01T00:10:42;14.80;;;10.57;;
56746;SDS011;42623;49.978;9.966;2023-03-01T00:11:13;14.70;;;11.43;;
56746;SDS011;42623;49.978;9.966;2023-03-01T00:11:24;18.05;;;13.23;;
56746;SDS011;42623;49.978;9.966;2023-03-01T00:11:35;27.45;;;13.85;;
56746;SDS011;42623;49.978;9.966;2023-03-01T00:11:45;27.77;;;12.93;;
56746;SDS011;42623;49.978;9.966;2023-03-01T00:11:55;26.70;;;11.55;;
56746;SDS011;42623;49.978;9.966;2023-03-01T00:12:06;16.93;;;10.70;;
56746;SDS011;42623;49.978;9.966;2023-03-01T00:12:16;16.37;;;11.00;;
56746;SDS011;42623;49.978;9.966;2023-03-01T00:12:26;15.07;;;11.23;;
56746;SDS011;42623;49.978;9.966;2023-03-01T00:12:37;15.95;;;11.52;;
56746;SDS011;42623;49.978;9.966;2023-03-01T00:12:47;15.93;;;11.40;;
56746;SDS011;42623;49.978;9.966;2023-03-01T00:12:57;16.20;;;11.63;;
56746;SDS011;42623;49.978;9.966;2023-03-01T00:13:08;16.67;;;11.37;;
56746;SDS011;42623;49.978;9.966;2023-03-01T00:13:18;16.73;;;10.73;;
56746;SDS011;42623;49.978;9.966;2023-03-01T00:13:28;16.17;;;10.07;;
56746;SDS011;42623;49.978;9.966;2023-03-01T00:13:38;15.77;;;10.03;;
56746;SDS011;42623;49.978;9.966;2023-03-01T00:13:50;15.63;;;9.85;;
56746;SDS011;42623;49.978;9.966;2023-03-01T00:14:01;15.48;;;9.93;;
56746;SDS011;42623;49.978;9.966;2023-03-01T00:14:12;15.25;;;9.95;;
56746;SDS011;42623;49.978;9.966;2023-03-01T00:14:22;14.30;;;9.65;;
56746;SDS011;42623;49.978;9.966;2023-03-01T00:14:33;14.70;;;9.80;;
56746;SDS011;42623;49.978;9.966;2023-03-01T00:14:43;17.03;;;9.33;;
56746;SDS011;42623;49.978;9.966;2023-03-01T00:14:54;18.43;;;10.17;;
56746;SDS011;42623;49.978;9.966;2023-03-01T00:15:04;17.53;;;10.50;;
56746;SDS011;42623;49.978;9.966;2023-03-01T00:15:14;16.10;;;10.70;;
56746;SDS011;42623;49.978;9.966;2023-03-01T00:15:24;15.70;;;10.03;;
56746;SDS011;42623;49.978;9.966;2023-03-01T00:15:37;15.37;;;10.10;;
56746;SDS011;42623;49.978;9.966;2023-03-01T00:15:48;14.00;;;10.73;;
56746;SDS011;42623;49.978;9.966;2023-03-01T00:15:58;16.17;;;11.35;;
56746;SDS011;42623;49.978;9.966;2023-03-01T00:16:12;17.27;;;11.13;;
56746;SDS011;42623;49.978;9.966;2023-03-01T00:16:24;18.00;;;11.24;;
56746;SDS011;42623;49.978;9.966;2023-03-01T00:16:35;16.52;;;10.15;;
56746;SDS011;42623;49.978;9.966;2023-03-01T00:16:45;16.10;;;9.75;;
56746;SDS011;42623;49.978;9.966;2023-03-01T00:16:55;14.57;;;8.90;;
56746;SDS011;42623;49.978;9.966;2023-03-01T00:17:06;13.80;;;8.83;;
56746;SDS011;42623;49.978;9.966;2023-03-01T00:17:16;14.40;;;8.70;;
56746;SDS011;42623;49.978;9.966;2023-03-01T00:17:27;17.48;;;9.45;;
56746;SDS011;42623;49.978;9.966;2023-03-01T00:17:37;17.02;;;9.55;;
56746;SDS011;42623;49.978;9.966;2023-03-01T00:17:47;16.70;;;9.77;;
56746;SDS011;42623;49.978;9.966;2023-03-01T00:17:57;15.27;;;9.33;;
56746;SDS011;42623;49.978;9.966;2023-03-01T00:18:07;14.80;;;9.57;;
56746;SDS011;42623;49.978;9.966;2023-03-01T00:18:18;23.87;;;10.33;;
56746;SDS011;42623;49.978;9.966;2023-03-01T00:18:28;28.42;;;10.70;;
56746;SDS011;42623;49.978;9.966;2023-03-01T00:18:38;29.03;;;11.07;;
56746;SDS011;42623;49.978;9.966;2023-03-01T00:18:48;14.90;;;9.70;;
56746;SDS011;42623;49.978;9.966;2023-03-01T00:18:59;14.50;;;9.97;;
56746;SDS011;42623;49.978;9.966;2023-03-01T00:19:12;14.17;;;9.83;;
56746;SDS011;42623;49.978;9.966;2023-03-01T00:19:22;17.02;;;10.65;;
56746;SDS011;42623;49.978;9.966;2023-03-01T00:19:32;17.83;;;10.35;;
56746;SDS011;42623;49.978;9.966;2023-03-01T00:19:42;17.17;;;9.43;;
56746;SDS011;42623;49.978;9.966;2023-03-01T00:19:53;15.27;;;9.87;;
56746;SDS011;42623;49.978;9.966;2023-03-01T00:20:03;14.20;;;9.30;;
56746;SDS011;42623;49.978;9.966;2023-03-01T00:20:13;14.95;;;9.00;;
56746;SDS011;42623;49.978;9.966;2023-03-01T00:20:24;17.47;;;9.53;;
56746;SDS011;42623;49.978;9.966;2023-03-01T00:20:34;18.45;;;9.63;;
56746;SDS011;42623;49.978;9.966;2023-03-01T00:20:54;16.33;;;9.73;;
56746;SDS011;42623;49.978;9.966;2023-03-01T00:21:04;18.98;;;11.05;;
56746;SDS011;42623;49.978;9.966;2023-03-01T00:21:15;19.25;;;11.25;;
56746;SDS011;42623;49.978;9.966;2023-03-01T00:21:25;19.17;;;10.97;;
56746;SDS011;42623;49.978;9.966;2023-03-01T00:21:35;18.85;;;10.70;;
56746;SDS011;42623;49.978;9.966;2023-03-01T00:21:46;18.80;;;10.87;;
56746;SDS011;42623;49.978;9.966;2023-03-01T00:21:56;19.20;;;11.40;;
56746;SDS011;42623;49.978;9.966;2023-03-01T00:22:06;16.70;;;10.47;;
56746;SDS011;42623;49.978;9.966;2023-03-01T00:22:16;16.30;;;9.87;;
56746;SDS011;42623;49.978;9.966;2023-03-01T00:22:26;14.55;;;9.48;;
56746;SDS011;42623;49.978;9.966;2023-03-01T00:22:38;15.25;;;10.00;;
56746;SDS011;42623;49.978;9.966;2023-03-01T00:22:48;17.57;;;11.00;;
56746;SDS011;42623;49.978;9.966;2023-03-01T00:22:58;17.88;;;10.48;;
56746;SDS011;42623;49.978;9.966;2023-03-01T00:23:08;17.87;;;10.37;;
56746;SDS011;42623;49.978;9.966;2023-03-01T00:23:18;16.53;;;9.93;;
56746;SDS011;42623;49.978;9.966;2023-03-01T00:23:28;15.40;;;10.00;;
56746;SDS011;42623;49.978;9.966;2023-03-01T00:23:39;14.77;;;9.82;;
56746;SDS011;42623;49.978;9.966;2023-03-01T00:23:49;15.77;;;9.77;;
56746;SDS011;42623;49.978;9.966;2023-03-01T00:24:00;18.48;;;10.15;;
56746;SDS011;42623;49.978;9.966;2023-03-01T00:24:11;17.77;;;10.63;;
56746;SDS011;42623;49.978;9.966;2023-03-01T00:24:21;16.90;;;10.33;;
56746;SDS011;42623;49.978;9.966;2023-03-01T00:24:31;15.00;;;10.10;;
56746;SDS011;42623;49.978;9.966;2023-03-01T00:24:41;14.93;;;9.80;;
56746;SDS011;42623;49.978;9.966;2023-03-01T00:24:51;15.60;;;10.33;;
56746;SDS011;42623;49.978;9.966;2023-03-01T00:25:02;17.03;;;10.70;;
56746;SDS011;42623;49.978;9.966;2023-03-01T00:25:12;16.38;;;10.00;;
56746;SDS011;42623;49.978;9.966;2023-03-01T00:25:22;15.23;;;9.73;;
56746;SDS011;42623;49.978;9.966;2023-03-01T00:25:32;16.60;;;9.67;;
56746;SDS011;42623;49.978;9.966;2023-03-01T00:25:43;18.60;;;10.87;;
56746;SDS011;42623;49.978;9.966;2023-03-01T00:25:53;18.55;;;10.50;;
56746;SDS011;42623;49.978;9.966;2023-03-01T00:26:07;15.60;;;10.60;;
56746;SDS011;42623;49.978;9.966;2023-03-01T00:26:18;15.05;;;10.70;;
56746;SDS011;42623;49.978;9.966;2023-03-01T00:26:29;13.82;;;9.98;;
56746;SDS011;42623;49.978;9.966;2023-03-01T00:26:39;14.43;;;9.27;;
56746;SDS011;42623;49.978;9.966;2023-03-01T00:26:52;14.80;;;9.43;;
56746;SDS011;42623;49.978;9.966;2023-03-01T00:27:02;16.52;;;9.73;;
56746;SDS011;42623;49.978;9.966;2023-03-01T00:27:12;14.93;;;9.37;;
56746;SDS011;42623;49.978;9.966;2023-03-01T00:27:22;16.27;;;9.47;;
56746;SDS011;42623;49.978;9.966;2023-03-01T00:27:33;16.27;;;9.33;;
56746;SDS011;42623;49.978;9.966;2023-03-01T00:27:43;16.93;;;9.60;;
56746;SDS011;42623;49.978;9.966;2023-03-01T00:27:53;19.17;;;10.13;;
56746;SDS011;42623;49.978;9.966;2023-03-01T00:28:03;17.83;;;9.70;;
56746;SDS011;42623;49.978;9.966;2023-03-01T00:28:13;17.10;;;9.47;;
56746;SDS011;42623;49.978;9.966;2023-03-01T00:28:24;14.75;;;9.55;;
56746;SDS011;42623;49.978;9.966;2023-03-01T00:28:34;14.67;;;10.07;;
56746;SDS011;42623;49.978;9.966;2023-03-01T00:28:44;15.03;;;9.93;;
56746;SDS011;42623;49.978;9.966;2023-03-01T00:28:56;15.20;;;9.65;;
56746;SDS011;42623;49.978;9.966;2023-03-01T00:29:06;16.73;;;10.35;;
56746;SDS011;42623;49.978;9.966;2023-03-01T00:29:16;19.45;;;11.00;;
56746;SDS011;42623;49.978;9.966;2023-03-01T00:29:27;20.80;;;12.13;;
56746;SDS011;42623;49.978;9.966;2023-03-01T00:29:37;19.37;;;11.23;;
56746;SDS011;42623;49.978;9.966;2023-03-01T00:29:47;17.90;;;10.43;;
56746;SDS011;42623;49.978;9.966;2023-03-01T00:29:57;16.80;;;9.47;;
56746;SDS011;42623;49.978;9.966;2023-03-01T00:30:07;14.37;;;8.90;;
56746;SDS011;42623;49.978;9.966;2023-03-01T00:30:18;15.37;;;9.97;;
56746;SDS011;42623;49.978;9.966;2023-03-01T00:30:28;16.58;;;10.50;;
56746;SDS011;42623;49.978;9.966;2023-03-01T00:30:38;18.13;;;11.93;;
56746;SDS011;42623;49.978;9.966;2023-03-01T00:30:48;17.97;;;12.03;;
56746;SDS011;42623;49.978;9.966;2023-03-01T00:31:02;19.17;;;12.40;;
56746;SDS011;42623;49.978;9.966;2023-03-01T00:31:14;17.52;;;10.77;;
56746;SDS011;42623;49.978;9.966;2023-03-01T00:31:27;16.42;;;11.25;;
56746;SDS011;42623;49.978;9.966;2023-03-01T00:31:39;16.85;;;11.70;;
56746;SDS011;42623;49.978;9.966;2023-03-01T00:31:49;16.67;;;11.20;;
56746;SDS011;42623;49.978;9.966;2023-03-01T00:31:59;15.00;;;9.83;;
56746;SDS011;42623;49.978;9.966;2023-03-01T00:32:09;14.33;;;9.63;;
56746;SDS011;42623;49.978;9.966;2023-03-01T00:32:19;15.10;;;10.47;;
56746;SDS011;42623;49.978;9.966;2023-03-01T00:32:29;15.03;;;11.00;;
56746;SDS011;42623;49.978;9.966;2023-03-01T00:32:39;15.47;;;11.43;;
56746;SDS011;42623;49.978;9.966;2023-03-01T00:32:50;15.23;;;10.93;;
56746;SDS011;42623;49.978;9.966;2023-03-01T00:33:00;15.80;;;10.07;;
56746;SDS011;42623;49.978;9.966;2023-03-01T00:33:10;16.80;;;10.27;;
56746;SDS011;42623;49.978;9.966;2023-03-01T00:33:20;16.50;;;10.50;;
56746;SDS011;42623;49.978;9.966;2023-03-01T00:33:30;16.27;;;11.20;;
56746;SDS011;42623;49.978;9.966;2023-03-01T00:33:41;15.33;;;11.37;;
56746;SDS011;42623;49.978;9.966;2023-03-01T00:33:58;15.37;;;11.00;;
56746;SDS011;42623;49.978;9.966;2023-03-01T00:34:09;15.52;;;10.85;;
56746;SDS011;42623;49.978;9.966;2023-03-01T00:34:19;17.00;;;11.43;;
56746;SDS011;42623;49.978;9.966;2023-03-01T00:34:29;15.47;;;11.37;;
56746;SDS011;42623;49.978;9.966;2023-03-01T00:34:39;19.13;;;11.50;;
56746;SDS011;42623;49.978;9.966;2023-03-01T00:34:49;18.73;;;10.93;;
56746;SDS011;42623;49.978;9.966;2023-03-01T00:35:04;21.52;;;11.02;;
56746;SDS011;42623;49.978;9.966;2023-03-01T00:35:15;20.77;;;11.02;;
56746;SDS011;42623;49.978;9.966;2023-03-01T00:35:25;18.83;;;11.80;;
56746;SDS011;42623;49.978;9.966;2023-03-01T00:35:35;19.13;;;12.67;;
56746;SDS011;42623;49.978;9.966;2023-03-01T00:35:46;19.00;;;13.37;;
56746;SDS011;42623;49.978;9.966;2023-03-01T00:35:57;19.07;;;13.10;;
56746;SDS011;42623;49.978;9.966;2023-03-01T00:36:08;17.33;;;11.32;;
56746;SDS011;42623;49.978;9.966;2023-03-01T00:36:18;16.92;;;11.38;;
56746;SDS011;42623;49.978;9.966;2023-03-01T00:36:30;19.27;;;11.40;;
56746;SDS011;42623;49.978;9.966;2023-03-01T00:36:40;19.00;;;11.65;;
56746;SDS011;42623;49.978;9.966;2023-03-01T00:36:50;20.70;;;12.30;;
56746;SDS011;42623;49.978;9.966;2023-03-01T00:37:00;18.40;;;12.07;;
56746;SDS011;42623;49.978;9.966;2023-03-01T00:37:15;18.40;;;12.20;;
56746;SDS011;42623;49.978;9.966;2023-03-01T00:37:25;16.03;;;11.30;;
56746;SDS011;42623;49.978;9.966;2023-03-01T00:37:35;17.00;;;11.87;;
56746;SDS011;42623;49.978;9.966;2023-03-01T00:37:45;18.97;;;12.70;;
56746;SDS011;42623;49.978;9.966;2023-03-01T00:37:56;20.20;;;12.67;;
56746;SDS011;42623;49.978;9.966;2023-03-01T00:38:07;17.60;;;11.82;;
56746;SDS011;42623;49.978;9.966;2023-03-01T00:38:18;16.00;;;11.00;;
56746;SDS011;42623;49.978;9.966;2023-03-01T00:38:28;15.87;;;11.30;;
56746;SDS011;42623;49.978;9.966;2023-03-01T00:38:39;16.77;;;11.13;;
56746;SDS011;42623;49.978;9.966;2023-03-01T00:38:49;16.25;;;11.50;;
56746;SDS011;42623;49.978;9.966;2023-03-01T00:38:59;17.60;;;11.40;;
56746;SDS011;42623;49.978;9.966;2023-03-01T00:39:13;18.70;;;12.07;;
56746;SDS011;42623;49.978;9.966;2023-03-01T00:39:23;17.42;;;12.48;;
56746;SDS011;42623;49.978;9.966;2023-03-01T00:39:34;16.90;;;12.30;;
56746;SDS011;42623;49.978;9.966;2023-03-01T00:39:44;17.60;;;12.03;;
56746;SDS011;42623;49.978;9.966;2023-03-01T00:39:54;17.67;;;11.53;;
56746;SDS011;42623;49.978;9.966;2023-03-01T00:40:04;19.77;;;12.35;;
56746;SDS011;42623;49.978;9.966;2023-03-01T00:40:16;20.60;;;12.55;;
56746;SDS011;42623;49.978;9.966;2023-03-01T00:40:26;20.52;;;12.48;;
56746;SDS011;42623;49.978;9.966;2023-03-01T00:40:37;18.75;;;12.63;;
56746;SDS011;42623;49.978;9.966;2023-03-01T00:40:47;17.30;;;12.03;;
56746;SDS011;42623;49.978;9.966;2023-03-01T00:41:02;18.73;;;12.10;;
56746;SDS011;42623;49.978;9.966;2023-03-01T00:41:13;22.40;;;12.98;;
56746;SDS011;42623;49.978;9.966;2023-03-01T00:41:24;20.10;;;12.48;;
56746;SDS011;42623;49.978;9.966;2023-03-01T00:41:36;18.83;;;11.32;;
56746;SDS011;42623;49.978;9.966;2023-03-01T00:41:46;16.60;;;10.70;;
56746;SDS011;42623;49.978;9.966;2023-03-01T00:41:56;18.35;;;11.10;;
56746;SDS011;42623;49.978;9.966;2023-03-01T00:42:06;19.67;;;11.40;;
56746;SDS011;42623;49.978;9.966;2023-03-01T00:42:17;21.33;;;11.90;;
56746;SDS011;42623;49.978;9.966;2023-03-01T00:42:27;19.70;;;11.97;;
56746;SDS011;42623;49.978;9.966;2023-03-01T00:42:37;19.13;;;12.50;;
56746;SDS011;42623;49.978;9.966;2023-03-01T00:42:48;17.37;;;12.13;;
56746;SDS011;42623;49.978;9.966;2023-03-01T00:42:58;18.50;;;13.17;;
56746;SDS011;42623;49.978;9.966;2023-03-01T00:43:08;20.73;;;13.17;;
56746;SDS011;42623;49.978;9.966;2023-03-01T00:43:18;20.67;;;13.40;;
56746;SDS011;42623;49.978;9.966;2023-03-01T00:43:28;20.00;;;12.60;;
56746;SDS011;42623;49.978;9.966;2023-03-01T00:43:38;18.65;;;12.43;;
56746;SDS011;42623;49.978;9.966;2023-03-01T00:43:49;17.43;;;12.03;;
56746;SDS011;42623;49.978;9.966;2023-03-01T00:43:59;17.70;;;12.70;;
56746;SDS011;42623;49.978;9.966;2023-03-01T00:44:10;16.93;;;11.90;;
56746;SDS011;42623;49.978;9.966;2023-03-01T00:44:20;17.70;;;12.10;;
56746;SDS011;42623;49.978;9.966;2023-03-01T00:44:30;16.42;;;10.65;;
56746;SDS011;42623;49.978;9.966;2023-03-01T00:44:40;16.10;;;10.77;;
56746;SDS011;42623;49.978;9.966;2023-03-01T00:44:50;16.23;;;11.43;;
56746;SDS011;42623;49.978;9.966;2023-03-01T00:45:01;16.53;;;12.17;;
56746;SDS011;42623;49.978;9.966;2023-03-01T00:45:11;17.83;;;12.55;;
56746;SDS011;42623;49.978;9.966;2023-03-01T00:45:23;18.23;;;11.50;;
56746;SDS011;42623;49.978;9.966;2023-03-01T00:45:33;20.73;;;11.02;;
56746;SDS011;42623;49.978;9.966;2023-03-01T00:45:43;19.07;;;10.37;;
56746;SDS011;42623;49.978;9.966;2023-03-01T00:45:53;19.53;;;11.23;;
56746;SDS011;42623;49.978;9.966;2023-03-01T00:46:04;18.53;;;11.80;;
56746;SDS011;42623;49.978;9.966;2023-03-01T00:46:16;17.73;;;12.27;;
56746;SDS011;42623;49.978;9.966;2023-03-01T00:46:26;16.25;;;12.55;;
56746;SDS011;42623;49.978;9.966;2023-03-01T00:46:37;17.38;;;11.88;;
56746;SDS011;42623;49.978;9.966;2023-03-01T00:46:47;17.73;;;11.77;;
56746;SDS011;42623;49.978;9.966;2023-03-01T00:46:57;16.63;;;10.80;;
56746;SDS011;42623;49.978;9.966;2023-03-01T00:47:07;15.83;;;11.03;;
56746;SDS011;42623;49.978;9.966;2023-03-01T00:47:18;17.07;;;11.30;;
56746;SDS011;42623;49.978;9.966;2023-03-01T00:47:28;20.73;;;12.30;;
56746;SDS011;42623;49.978;9.966;2023-03-01T00:47:39;20.42;;;12.25;;
56746;SDS011;42623;49.978;9.966;2023-03-01T00:47:49;18.27;;;12.07;;
56746;SDS011;42623;49.978;9.966;2023-03-01T00:47:59;16.97;;;11.50;;
56746;SDS011;42623;49.978;9.966;2023-03-01T00:48:09;17.10;;;11.80;;
56746;SDS011;42623;49.978;9.966;2023-03-01T00:48:20;17.92;;;11.68;;
56746;SDS011;42623;49.978;9.966;2023-03-01T00:48:30;18.03;;;11.50;;
56746;SDS011;42623;49.978;9.966;2023-03-01T00:48:40;17.83;;;10.80;;
56746;SDS011;42623;49.978;9.966;2023-03-01T00:48:50;18.17;;;10.77;;
56746;SDS011;42623;49.978;9.966;2023-03-01T00:49:00;19.48;;;11.52;;
56746;SDS011;42623;49.978;9.966;2023-03-01T00:49:12;20.17;;;12.77;;
56746;SDS011;42623;49.978;9.966;2023-03-01T00:49:22;21.25;;;13.77;;
56746;SDS011;42623;49.978;9.966;2023-03-01T00:49:34;18.42;;;12.43;;
56746;SDS011;42623;49.978;9.966;2023-03-01T00:49:44;16.27;;;11.40;;
56746;SDS011;42623;49.978;9.966;2023-03-01T00:49:54;15.63;;;11.03;;
56746;SDS011;42623;49.978;9.966;2023-03-01T00:50:04;18.50;;;11.70;;
56746;SDS011;42623;49.978;9.966;2023-03-01T00:50:15;20.00;;;12.63;;
56746;SDS011;42623;49.978;9.966;2023-03-01T00:50:25;19.60;;;12.07;;
56746;SDS011;42623;49.978;9.966;2023-03-01T00:50:35;18.57;;;10.80;;
56746;SDS011;42623;49.978;9.966;2023-03-01T00:50:45;18.47;;;10.13;;
56746;SDS011;42623;49.978;9.966;2023-03-01T00:50:55;20.33;;;10.63;;
56746;SDS011;42623;49.978;9.966;2023-03-01T00:51:09;19.27;;;11.30;;
56746;SDS011;42623;49.978;9.966;2023-03-01T00:51:21;18.98;;;11.32;;
56746;SDS011;42623;49.978;9.966;2023-03-01T00:51:31;17.38;;;10.65;;
56746;SDS011;42623;49.978;9.966;2023-03-01T00:51:42;16.93;;;10.30;;
56746;SDS011;42623;49.978;9.966;2023-03-01T00:51:53;16.70;;;10.85;;
56746;SDS011;42623;49.978;9.966;2023-03-01T00:52:03;17.10;;;11.47;;
56746;SDS011;42623;49.978;9.966;2023-03-01T00:52:13;18.67;;;12.50;;
56746;SDS011;42623;49.978;9.966;2023-03-01T00:52:23;18.93;;;12.90;;
56746;SDS011;42623;49.978;9.966;2023-03-01T00:52:33;19.50;;;12.67;;
56746;SDS011;42623;49.978;9.966;2023-03-01T00:52:43;18.47;;;12.37;;
56746;SDS011;42623;49.978;9.966;2023-03-01T00:52:54;19.53;;;11.60;;
56746;SDS011;42623;49.978;9.966;2023-03-01T00:53:05;19.60;;;12.33;;
56746;SDS011;42623;49.978;9.966;2023-03-01T00:53:15;18.40;;;12.48;;
56746;SDS011;42623;49.978;9.966;2023-03-01T00:53:25;16.47;;;12.43;;
56746;SDS011;42623;49.978;9.966;2023-03-01T00:53:36;17.00;;;12.20;;
56746;SDS011;42623;49.978;9.966;2023-03-01T00:53:46;17.83;;;12.48;;
56746;SDS011;42623;49.978;9.966;2023-03-01T00:53:58;18.42;;;12.77;;
56746;SDS011;42623;49.978;9.966;2023-03-01T00:54:09;17.75;;;12.73;;
56746;SDS011;42623;49.978;9.966;2023-03-01T00:54:19;17.47;;;12.10;;
56746;SDS011;42623;49.978;9.966;2023-03-01T00:54:29;17.07;;;11.57;;
56746;SDS011;42623;49.978;9.966;2023-03-01T00:54:39;16.60;;;11.23;;
56746;SDS011;42623;49.978;9.966;2023-03-01T00:54:51;15.10;;;10.93;;
56746;SDS011;42623;49.978;9.966;2023-03-01T00:55:02;15.38;;;11.55;;
56746;SDS011;42623;49.978;9.966;2023-03-01T00:55:12;16.45;;;11.40;;
56746;SDS011;42623;49.978;9.966;2023-03-01T00:55:22;19.47;;;12.20;;
56746;SDS011;42623;49.978;9.966;2023-03-01T00:55:33;20.80;;;12.30;;
56746;SDS011;42623;49.978;9.966;2023-03-01T00:55:43;20.80;;;12.50;;
56746;SDS011;42623;49.978;9.966;2023-03-01T00:55:53;19.17;;;12.80;;
56746;SDS011;42623;49.978;9.966;2023-03-01T00:56:04;18.40;;;12.87;;
56746;SDS011;42623;49.978;9.966;2023-03-01T00:56:14;17.60;;;12.80;;
56746;SDS011;42623;49.978;9.966;2023-03-01T00:56:25;17.35;;;12.45;;
56746;SDS011;42623;49.978;9.966;2023-03-01T00:56:35;16.23;;;11.30;;
56746;SDS011;42623;49.978;9.966;2023-03-01T00:56:45;17.00;;;11.17;;
56746;SDS011;42623;49.978;9.966;2023-03-01T00:56:55;18.38;;;11.98;;
56746;SDS011;42623;49.978;9.966;2023-03-01T00:57:05;19.43;;;12.17;;
56746;SDS011;42623;49.978;9.966;2023-03-01T00:57:15;17.13;;;12.00;;
56746;SDS011;42623;49.978;9.966;2023-03-01T00:57:25;17.03;;;10.90;;
56746;SDS011;42623;49.978;9.966;2023-03-01T00:57:36;17.90;;;11.27;;
56746;SDS011;42623;49.978;9.966;2023-03-01T00:57:46;19.02;;;12.15;;
56746;SDS011;42623;49.978;9.966;2023-03-01T00:57:56;19.13;;;11.67;;
56746;SDS011;42623;49.978;9.966;2023-03-01T00:58:06;18.33;;;11.37;;
56746;SDS011;42623;49.978;9.966;2023-03-01T00:58:16;17.60;;;10.53;;
56746;SDS011;42623;49.978;9.966;2023-03-01T00:58:26;17.00;;;10.37;;
56746;SDS011;42623;49.978;9.966;2023-03-01T00:58:37;17.63;;;11.43;;
56746;SDS011;42623;49.978;9.966;2023-03-01T00:58:48;19.55;;;11.68;;
56746;SDS011;42623;49.978;9.966;2023-03-01T00:58:58;19.13;;;11.67;;
56746;SDS011;42623;49.978;9.966;2023-03-01T00:59:08;18.08;;;10.85;;
56746;SDS011;42623;49.978;9.966;2023-03-01T00:59:18;18.60;;;11.90;;
56746;SDS011;42623;49.978;9.966;2023-03-01T00:59:29;17.53;;;11.77;;
56746;SDS011;42623;49.978;9.966;2023-03-01T00:59:39;19.00;;;11.60;;
56746;SDS011;42623;49.978;9.966;2023-03-01T00:59:49;16.63;;;10.73;;
56746;SDS011;42623;49.978;9.966;2023-03-01T00:59:59;17.23;;;10.27;;
56746;SDS011;42623;49.978;9.966;2023-03-01T01:00:09;14.40;;;10.03;;
56746;SDS011;42623;49.978;9.966;2023-03-01T01:00:21;14.30;;;9.98;;
56746;SDS011;42623;49.978;9.966;2023-03-01T01:00:31;14.53;;;10.60;;
56746;SDS011;42623;49.978;9.966;2023-03-01T01:00:41;16.60;;;11.50;;
56746;SDS011;42623;49.978;9.966;2023-03-01T01:00:52;16.38;;;11.00;;
56746;SDS011;42623;49.978;9.966;2023-03-01T01:01:09;15.73;;;11.02;;
56746;SDS011;42623;49.978;9.966;2023-03-01T01:01:27;16.98;;;11.50;;
56746;SDS011;42623;49.978;9.966;2023-03-01T01:01:41;18.75;;;11.40;;
56746;SDS011;42623;49.978;9.966;2023-03-01T01:01:51;18.93;;;11.67;;
56746;SDS011;42623;49.978;9.966;2023-03-01T01:02:01;16.70;;;10.40;;
56746;SDS011;42623;49.978;9.966;2023-03-01T01:02:11;14.80;;;9.98;;
56746;SDS011;42623;49.978;9.966;2023-03-01T01:02:21;15.37;;;9.87;;
56746;SDS011;42623;49.978;9.966;2023-03-01T01:02:32;19.23;;;11.77;;
56746;SDS011;42623;49.978;9.966;2023-03-01T01:02:42;20.52;;;12.45;;
56746;SDS011;42623;49.978;9.966;2023-03-01T01:02:53;17.17;;;11.90;;
56746;SDS011;42623;49.978;9.966;2023-03-01T01:03:03;14.33;;;9.90;;
56746;SDS011;42623;49.978;9.966;2023-03-01T01:03:13;13.47;;;8.80;;
56746;SDS011;42623;49.978;9.966;2023-03-01T01:03:23;15.27;;;9.20;;
56746;SDS011;42623;49.978;9.966;2023-03-01T01:03:34;15.27;;;9.85;;
56746;SDS011;42623;49.978;9.966;2023-03-01T01:03:56;18.10;;;10.20;;
56746;SDS011;42623;49.978;9.966;2023-03-01T01:04:07;17.50;;;9.63;;
56746;SDS011;42623;49.978;9.966;2023-03-01T01:04:17;15.18;;;8.68;;
56746;SDS011;42623;49.978;9.966;2023-03-01T01:04:27;13.77;;;8.13;;
56746;SDS011;42623;49.978;9.966;2023-03-01T01:04:38;14.90;;;8.70;;
56746;SDS011;42623;49.978;9.966;2023-03-01T01:04:48;15.27;;;9.00;;
56746;SDS011;42623;49.978;9.966;2023-03-01T01:04:58;14.50;;;9.15;;
56746;SDS011;42623;49.978;9.966;2023-03-01T01:05:09;14.47;;;9.13;;
56746;SDS011;42623;49.978;9.966;2023-03-01T01:05:19;16.63;;;9.45;;
56746;SDS011;42623;49.978;9.966;2023-03-01T01:05:30;16.05;;;9.20;;
56746;SDS011;42623;49.978;9.966;2023-03-01T01:05:40;15.43;;;8.97;;
56746;SDS011;42623;49.978;9.966;2023-03-01T01:05:51;14.77;;;8.87;;
56746;SDS011;42623;49.978;9.966;2023-03-01T01:06:02;15.60;;;9.15;;
56746;SDS011;42623;49.978;9.966;2023-03-01T01:06:20;14.98;;;9.68;;
56746;SDS011;42623;49.978;9.966;2023-03-01T01:06:38;16.33;;;10.63;;
56746;SDS011;42623;49.978;9.966;2023-03-01T01:06:48;16.60;;;11.30;;
56746;SDS011;42623;49.978;9.966;2023-03-01T01:06:58;15.47;;;10.57;;
56746;SDS011;42623;49.978;9.966;2023-03-01T01:07:08;15.77;;;9.70;;
56746;SDS011;42623;49.978;9.966;2023-03-01T01:07:18;16.00;;;9.07;;